Alpine, NY

6:40 AM EDT on March 29, 2015 (GMT -0400)
Binghamton Regional-Link | | Change Station
CLOSE
Current Station
Airport
Location: Binghamton,
Elevation: 1634 ft
Nearby Weather Stations

Elev 1634 ft 42.21 °N, 75.98 °W | Updated 47 minutes ago

Partly Cloudy
Partly Cloudy
15 °F
Feels Like 6 °F
N
6
Wind Variable Wind from NW

Today
High -- | Low -- °F
--% Chance of Precip.
Yesterday
High -- | Low -- °F
Precip. -- in
6:55 AM 7:29 PM
Waxing Gibbous, 70% visible
Pressure 30.24 in
Visibility 10.0 miles
Clouds Clear
Windchill 6 °F
Dew Point 10 °F
Humidity 80%
Rainfall 0.00 in
Snow Depth Not available.
UV 0 out of 12
Pollen 1.00 out of 12
Air Quality Not available.
Flu Activity Not available.
METAR KBGM 290953Z AUTO 31005KT 10SM CLR M09/M12 A3015 RMK AO2 SLP238 T10941122

More Conditions Fewer Conditions

Pressure 30.24 in
Visibility 10.0 miles
Clouds Clear
Windchill 6 °F
Dew Point 10 °F
Humidity 80%
Rainfall 0.00 in
Snow Depth Not available.
UV 0 out of 12
Pollen 1.00 out of 12
Air Quality Not available.
Flu Activity Not available.
METAR KBGM 290953Z AUTO 31005KT 10SM CLR M09/M12 A3015 RMK AO2 SLP238 T10941122

More Conditions Fewer Conditions

10-Day Weather Forecast

Almanac

Astronomy

Mar. 29, 2015 Rise Set
Actual Time
Civil Twilight
Nautical Twilight
Astronomical Twilight
Moon
Length of Visible Light
Length of Day
Tomorrow will be .
, % of the Moon is Illuminated

Today's Extremes

State Highs State Lows

Community

WunderPhotos

Upload Photos

1,809,214 photos uploaded!

WunderBlogs® & News

Nearby

Air Quality

  Air Quality AQ Index Pollutant
Not available.

Snow Depth

Station Depth Elevation

Earthquake Activity

City Distance Mag. Time & Date
Minimum magnitude displayed is 2.5.

Coastal Water Temperatures

Place Temperature

Stations

Nearby Weather Stations

Station Location Temp. Windchill Dew Point Humidity Wind Precip. Elev Updated Type